Kalmthout, Belgium
Current Conditions -  °F | °C
As of 2:25 PM on Friday 31 Oct 2014 (Local Time) from EHWO Reporting Station
Scattered Clouds Scattered Clouds  
Wind Chill: 66°   Ceiling: Unl
Heat Index: 66°   Visibility: 6mi
Dew Point: 54°   Wind: 7mph
Humidity: 64%   Direction: 180°S
Pressure: 30.12"   Gusts: NA
Location:  51.38°N, 4.48°E
Report Text: EHWO 311325Z AUTO 18006KT 9999 SCT210 19/12 Q1020 BLU 19004KT CAVOK
Loading
Personal Weather Stations






























Interactive Weather Map
Tropical Storm Tracking
New forecast layout! Learn more

10-Day Weather Forecast

Advertisements
Track Severe Weather on mobile